createdAt,value
2022-09-05T00:00:12.366Z,101338.97
2022-09-05T00:02:39.350Z,101337.88
2022-09-05T00:05:15.703Z,101331.25
2022-09-05T00:07:59.375Z,101334.34
2022-09-05T00:10:26.791Z,101331.13
2022-09-05T00:13:07.165Z,101329.50
2022-09-05T00:15:34.457Z,101329.66
2022-09-05T00:20:06.433Z,101332.31
2022-09-05T00:24:26.449Z,101333.88
2022-09-05T00:24:29.345Z,101121.59
2022-09-05T00:26:23.205Z,101328.91
2022-09-05T00:28:49.554Z,101331.75
2022-09-05T00:31:55.598Z,101328.53
2022-09-05T00:34:02.493Z,101333.03
2022-09-05T00:36:28.901Z,101333.47
2022-09-05T00:38:55.358Z,101332.34
2022-09-05T00:41:24.224Z,101327.53
2022-09-05T00:43:50.733Z,101327.22
2022-09-05T00:46:17.693Z,101329.81
2022-09-05T00:48:44.533Z,101327.31
2022-09-05T00:51:10.949Z,101325.41
2022-09-05T00:53:37.866Z,101340.22
2022-09-05T00:56:04.486Z,101337.56
2022-09-05T00:58:34.075Z,101335.63
2022-09-05T01:01:03.744Z,101327.56
2022-09-05T01:03:48.887Z,101329.34
2022-09-05T01:06:15.295Z,101330.06
2022-09-05T01:08:42.193Z,101329.50
2022-09-05T01:11:08.558Z,101323.06
2022-09-05T01:13:35.852Z,101320.19
2022-09-05T01:16:02.384Z,101328.84
2022-09-05T01:18:28.920Z,101325.38
2022-09-05T01:20:55.259Z,101337.41
2022-09-05T01:23:21.713Z,101331.50
2022-09-05T01:25:55.003Z,101330.47
2022-09-05T01:29:17.029Z,101331.72
2022-09-05T01:31:09.585Z,101332.53
2022-09-05T01:33:36.074Z,101329.31
2022-09-05T01:36:04.144Z,101336.72
2022-09-05T01:38:31.011Z,101342.81
2022-09-05T01:41:17.833Z,101348.28
2022-09-05T01:43:47.192Z,101348.78
2022-09-05T01:46:15.342Z,101342.56
2022-09-05T01:48:47.428Z,101338.53
2022-09-05T01:51:28.743Z,101340.63
2022-09-05T01:53:56.037Z,101335.22
2022-09-05T01:56:23.285Z,101326.69
2022-09-05T01:58:49.715Z,101326.63
2022-09-05T02:01:25.293Z,101324.53
2022-09-05T02:03:59.573Z,101335.94
2022-09-05T02:06:33.528Z,101336.19
2022-09-05T02:08:59.916Z,101335.84
2022-09-05T02:11:35.703Z,101333.78
2022-09-05T02:14:02.753Z,101333.53
2022-09-05T02:16:29.237Z,101331.34
2022-09-05T02:18:55.699Z,101334.47
2022-09-05T02:21:22.543Z,101326.66
2022-09-05T02:23:49.445Z,101331.97
2022-09-05T02:26:16.110Z,101324.25
2022-09-05T02:28:42.562Z,101323.13
2022-09-05T02:31:19.554Z,101324.41
2022-09-05T02:33:47.190Z,101331.44
2022-09-05T02:36:13.586Z,101337.78
2022-09-05T02:42:12.854Z,101330.88
2022-09-05T02:45:04.076Z,101338.28
2022-09-05T02:45:10.844Z,101337.22
2022-09-05T02:47:03.480Z,101332.41
2022-09-05T02:50:33.441Z,101342.44
2022-09-05T02:57:24.514Z,101334.94
2022-09-05T02:57:40.447Z,101340.72
2022-09-05T02:58:07.817Z,101339.91
2022-09-05T03:00:35.104Z,101344.88
2022-09-05T03:03:02.664Z,101345.34
2022-09-05T03:05:31.403Z,101341.56
2022-09-05T03:07:57.815Z,101340.41
2022-09-05T03:10:28.345Z,101345.16
2022-09-05T03:13:14.882Z,101351.50
2022-09-05T03:15:41.308Z,101340.88
2022-09-05T03:18:31.276Z,101343.06
2022-09-05T03:20:55.577Z,101337.31
2022-09-05T03:23:36.206Z,101342.47
2022-09-05T03:26:02.685Z,101344.66
2022-09-05T03:28:29.151Z,101344.41
2022-09-05T03:30:55.593Z,101315.41
2022-09-05T03:33:22.293Z,101341.75
2022-09-05T03:35:48.697Z,101342.56
2022-09-05T03:38:15.080Z,101344.88
2022-09-05T03:40:43.532Z,101350.09
2022-09-05T03:43:09.931Z,101350.09
2022-09-05T03:45:37.546Z,101346.16
2022-09-05T03:48:24.669Z,101343.03
2022-09-05T03:55:13.519Z,101341.53
2022-09-05T03:57:12.203Z,101342.91
2022-09-05T03:57:27.637Z,101345.31
2022-09-05T03:59:16.585Z,101353.50
2022-09-05T04:02:46.443Z,101342.22
2022-09-05T04:08:14.407Z,101344.88
2022-09-05T04:08:14.568Z,101349.03
2022-09-05T04:10:02.466Z,101345.81
2022-09-05T04:12:28.872Z,101343.63
2022-09-05T04:14:55.769Z,101344.69
2022-09-05T04:17:23.534Z,101345.50
2022-09-05T04:19:50.243Z,101348.13
2022-09-05T04:22:16.771Z,101350.91
2022-09-05T04:24:43.279Z,101352.84
2022-09-05T04:27:09.654Z,101345.13
2022-09-05T04:29:36.138Z,101350.91
2022-09-05T04:32:18.347Z,101359.09
2022-09-05T04:34:45.900Z,101355.06
2022-09-05T04:37:16.426Z,101358.50
2022-09-05T04:39:42.911Z,101356.44
2022-09-05T04:42:09.348Z,101353.69
2022-09-05T04:44:37.547Z,101202.22
2022-09-05T04:47:03.927Z,101352.88
2022-09-05T04:49:31.947Z,101361.28
2022-09-05T04:52:00.963Z,101363.59
2022-09-05T04:54:30.311Z,101367.97
2022-09-05T04:56:57.152Z,101359.69
2022-09-05T05:01:58.990Z,101363.47
2022-09-05T05:06:05.413Z,101362.06
2022-09-05T05:06:23.823Z,101370.81
2022-09-05T05:07:44.602Z,101366.41
2022-09-05T05:12:06.842Z,101376.63
2022-09-05T05:17:54.776Z,101378.91
2022-09-05T05:18:06.250Z,101375.88
2022-09-05T05:18:48.992Z,101376.41
2022-09-05T05:21:21.109Z,101373.38
2022-09-05T05:23:47.547Z,101374.84
2022-09-05T05:26:14.010Z,101375.16
2022-09-05T05:28:42.032Z,101382.41
2022-09-05T05:31:08.938Z,101385.41
2022-09-05T05:33:35.354Z,101392.19
2022-09-05T05:36:01.894Z,101377.72
2022-09-05T05:38:28.715Z,101380.53
2022-09-05T05:40:55.142Z,101383.13
2022-09-05T05:43:21.725Z,101385.69
2022-09-05T05:45:48.219Z,101385.00
2022-09-05T05:48:14.669Z,101385.63
2022-09-05T05:50:46.308Z,101389.75
2022-09-05T05:53:12.722Z,101395.69
2022-09-05T05:55:55.843Z,101398.72
2022-09-05T05:58:22.521Z,101398.34
2022-09-05T06:00:51.954Z,101397.91
2022-09-05T06:03:26.226Z,101397.66
2022-09-05T06:05:54.039Z,101394.97
2022-09-05T06:10:47.569Z,101396.22
2022-09-05T06:14:49.766Z,101399.38
2022-09-05T06:15:00.482Z,101399.25
2022-09-05T06:16:42.899Z,101392.59
2022-09-05T06:19:11.411Z,101397.69
2022-09-05T06:22:06.538Z,101388.59
2022-09-05T06:24:24.406Z,101380.97
2022-09-05T06:26:51.045Z,101388.34
2022-09-05T06:29:17.488Z,101383.38
2022-09-05T06:31:47.603Z,101387.81
2022-09-05T06:34:27.933Z,101384.66
2022-09-05T06:37:00.986Z,101386.22
2022-09-05T06:39:27.720Z,101389.34
2022-09-05T06:41:54.269Z,101393.78
2022-09-05T06:44:24.106Z,101394.78
2022-09-05T06:47:22.857Z,101392.84
2022-09-05T06:49:42.812Z,101392.91
2022-09-05T06:52:29.270Z,101389.41
2022-09-05T06:54:59.860Z,101388.19
2022-09-05T06:57:26.758Z,101403.47
2022-09-05T06:59:53.541Z,101401.59
2022-09-05T07:02:31.016Z,101404.41
2022-09-05T07:05:38.523Z,101391.31
2022-09-05T07:07:53.030Z,101391.25
2022-09-05T07:10:37.304Z,101392.50
2022-09-05T07:24:53.742Z,101386.63
2022-09-05T07:27:25.483Z,101394.59
2022-09-05T07:29:54.537Z,101395.63
2022-09-05T07:32:27.869Z,101394.50
2022-09-05T07:34:54.631Z,101396.78
2022-09-05T07:37:21.131Z,101395.19
2022-09-05T07:39:47.577Z,101400.06
2022-09-05T07:42:15.964Z,101400.41
2022-09-05T07:44:44.078Z,101403.63
2022-09-05T07:47:10.680Z,101401.34
2022-09-05T07:49:42.265Z,101407.53
2022-09-05T07:56:49.428Z,101404.31
2022-09-05T07:56:56.861Z,101407.78
2022-09-05T07:58:03.400Z,101393.44
2022-09-05T08:00:31.884Z,101400.59
2022-09-05T08:02:58.525Z,101400.53
2022-09-05T08:05:29.449Z,101399.91
2022-09-05T08:08:02.169Z,101402.03
2022-09-05T08:10:31.157Z,101397.78
2022-09-05T08:13:34.217Z,101398.09
2022-09-05T08:16:13.284Z,101396.19
2022-09-05T08:18:42.638Z,101392.75
2022-09-05T08:21:11.127Z,101393.47
2022-09-05T08:23:37.924Z,101394.47
2022-09-05T08:26:04.419Z,101387.63
2022-09-05T08:28:39.030Z,101394.41
2022-09-05T08:31:07.820Z,101388.91
2022-09-05T08:33:34.499Z,101382.19
2022-09-05T08:36:01.556Z,101387.09
2022-09-05T08:38:35.931Z,101381.72
2022-09-05T08:41:07.345Z,101378.91
2022-09-05T08:46:33.757Z,101384.25
2022-09-05T08:46:42.113Z,101375.28
2022-09-05T08:49:12.255Z,101381.44
2022-09-05T08:51:44.791Z,101372.16
2022-09-05T08:54:22.862Z,101371.09
2022-09-05T08:56:49.417Z,101372.19
2022-09-05T08:59:27.606Z,101374.66
2022-09-05T09:02:45.118Z,101373.84
2022-09-05T09:05:02.318Z,101369.09
2022-09-05T09:07:51.119Z,101366.34
2022-09-05T09:10:25.767Z,101368.53
2022-09-05T09:12:52.659Z,101361.88
2022-09-05T09:15:19.088Z,101361.19
2022-09-05T09:17:45.568Z,101351.25
2022-09-05T09:20:13.566Z,101354.94
2022-09-05T09:22:41.141Z,101358.56
2022-09-05T09:25:14.315Z,101348.13
2022-09-05T09:28:48.824Z,101348.75
2022-09-05T09:30:28.544Z,101350.09
2022-09-05T09:32:59.254Z,101346.94
2022-09-05T09:35:25.896Z,101338.34
2022-09-05T09:37:55.307Z,101341.06
2022-09-05T09:40:26.745Z,101333.97
2022-09-05T09:42:53.918Z,101339.78
2022-09-05T09:45:27.972Z,101332.09
2022-09-05T09:47:55.696Z,101334.91
2022-09-05T09:50:22.123Z,101334.28
2022-09-05T09:52:48.717Z,101338.38
2022-09-05T09:55:21.005Z,101341.47
2022-09-05T09:57:48.088Z,101333.56
2022-09-05T10:00:14.775Z,101344.84
2022-09-05T10:05:33.845Z,101331.41
2022-09-05T10:10:54.449Z,101332.00
2022-09-05T10:10:57.756Z,101334.53
2022-09-05T10:13:50.712Z,101327.13
2022-09-05T10:16:17.304Z,101317.47
2022-09-05T10:18:45.809Z,101319.25
2022-09-05T10:21:17.086Z,101312.91
2022-09-05T10:23:45.374Z,101311.59
2022-09-05T10:26:11.882Z,101304.00
2022-09-05T10:28:40.206Z,101307.66
2022-09-05T10:32:20.737Z,101311.63
2022-09-05T10:35:14.559Z,101310.44
2022-09-05T10:36:40.224Z,101306.06
2022-09-05T10:39:06.787Z,101309.78
2022-09-05T10:41:35.713Z,101312.41
2022-09-05T10:44:05.313Z,101297.47
2022-09-05T10:46:51.261Z,101300.38
2022-09-05T10:49:18.290Z,101294.38
2022-09-05T10:51:45.087Z,101294.03
2022-09-05T10:54:20.168Z,101285.63
2022-09-05T10:56:46.713Z,101289.94
2022-09-05T11:02:16.482Z,101285.88
2022-09-05T11:02:25.903Z,101274.44
2022-09-05T11:04:49.726Z,101271.28
2022-09-05T11:07:16.787Z,101273.19
2022-09-05T11:09:43.454Z,101270.78
2022-09-05T11:12:09.914Z,101260.88
2022-09-05T11:14:36.795Z,101265.06
2022-09-05T11:17:04.067Z,101256.72
2022-09-05T11:19:30.803Z,101252.09
2022-09-05T11:22:06.492Z,101247.69
2022-09-05T11:24:44.220Z,101242.84
2022-09-05T11:27:25.266Z,101244.50
2022-09-05T11:29:54.281Z,101242.09
2022-09-05T11:34:28.398Z,101237.06
2022-09-05T11:39:53.272Z,101240.34
2022-09-05T11:39:55.337Z,101246.56
2022-09-05T11:41:01.025Z,101247.44
2022-09-05T11:43:33.306Z,101242.63
2022-09-05T11:45:59.957Z,101242.44
2022-09-05T11:48:27.092Z,101240.47
2022-09-05T11:50:53.852Z,101246.09
2022-09-05T11:53:20.433Z,101244.19
2022-09-05T11:55:47.383Z,101242.06
2022-09-05T11:58:45.306Z,101235.63
2022-09-05T12:01:41.903Z,101243.28
2022-09-05T12:03:59.825Z,101233.56
2022-09-05T12:06:27.126Z,101235.09
2022-09-05T12:08:55.115Z,101238.13
2022-09-05T12:11:22.831Z,101238.13
2022-09-05T12:13:51.186Z,101231.72
2022-09-05T12:16:19.610Z,101235.16
2022-09-05T12:18:54.859Z,101230.28
2022-09-05T12:21:23.042Z,101231.34
2022-09-05T12:24:13.150Z,101225.50
2022-09-05T12:27:44.258Z,101231.88
2022-09-05T12:29:32.565Z,101221.41
2022-09-05T12:33:32.355Z,101217.75
2022-09-05T12:36:06.664Z,101226.13
2022-09-05T12:40:35.699Z,101226.94
2022-09-05T12:41:36.065Z,101215.34
2022-09-05T12:44:45.100Z,101220.63
2022-09-05T12:46:18.803Z,101223.69
2022-09-05T12:49:04.561Z,101224.66
2022-09-05T12:51:46.065Z,101218.69
2022-09-05T12:54:24.421Z,101220.34
2022-09-05T13:01:09.535Z,101215.03
2022-09-05T13:02:57.933Z,101207.16
2022-09-05T13:03:08.951Z,101206.38
2022-09-05T13:05:23.719Z,101197.47
2022-09-05T13:07:57.194Z,101203.47
2022-09-05T13:14:48.999Z,101191.31
2022-09-05T13:14:53.866Z,101195.22
2022-09-05T13:15:58.845Z,101188.53
2022-09-05T13:18:25.330Z,101183.53
2022-09-05T13:20:53.699Z,101176.31
2022-09-05T13:23:20.949Z,101172.94
2022-09-05T13:25:52.176Z,101176.84
2022-09-05T13:28:33.116Z,101171.34
2022-09-05T13:37:53.820Z,101161.97
2022-09-05T13:38:03.040Z,101150.72
2022-09-05T13:38:10.557Z,101154.38
2022-09-05T13:41:54.317Z,101155.56
2022-09-05T13:44:27.370Z,101150.81
2022-09-05T13:46:58.915Z,101147.44
2022-09-05T13:49:31.547Z,101157.34
2022-09-05T13:52:00.713Z,101148.69
2022-09-05T13:54:27.264Z,101143.03
2022-09-05T13:56:53.915Z,101152.84
2022-09-05T13:59:20.453Z,101145.19
2022-09-05T14:02:19.918Z,101141.59
2022-09-05T14:10:12.913Z,101138.28
2022-09-05T14:12:39.540Z,101136.03
2022-09-05T14:15:09.269Z,101130.84
2022-09-05T14:17:54.438Z,101126.75
2022-09-05T14:20:42.899Z,101121.25
2022-09-05T14:23:10.211Z,101124.06
2022-09-05T14:25:37.673Z,101122.00
2022-09-05T14:28:07.877Z,101116.81
2022-09-05T14:33:01.032Z,101113.69
2022-09-05T14:37:45.593Z,101110.41
2022-09-05T14:37:51.716Z,101107.09
2022-09-05T14:38:55.124Z,101110.34
2022-09-05T14:41:23.363Z,101107.88
2022-09-05T14:43:53.581Z,101108.88
2022-09-05T14:46:25.971Z,101107.69
2022-09-05T14:48:55.248Z,101102.41
2022-09-05T14:51:25.660Z,101107.06
2022-09-05T14:57:23.090Z,101095.88
2022-09-05T15:02:48.046Z,101103.84
2022-09-05T15:02:52.076Z,101098.75
2022-09-05T15:04:55.919Z,101094.38
2022-09-05T15:07:22.388Z,101090.53
2022-09-05T15:12:20.313Z,101081.97
2022-09-05T15:12:47.651Z,101093.13
2022-09-05T15:15:24.492Z,101088.38
2022-09-05T15:17:51.308Z,101090.97
2022-09-05T15:20:17.803Z,101088.94
2022-09-05T15:22:44.778Z,101083.97
2022-09-05T15:25:17.755Z,101081.94
2022-09-05T15:27:45.223Z,101082.03
2022-09-05T15:30:11.764Z,101086.06
2022-09-05T15:32:39.023Z,101082.13
2022-09-05T15:35:06.099Z,101081.78
2022-09-05T15:37:33.253Z,101079.53
2022-09-05T15:40:02.849Z,101072.41
2022-09-05T15:42:32.434Z,101074.59
2022-09-05T15:45:09.838Z,101070.31
2022-09-05T15:47:38.875Z,101060.38
2022-09-05T15:50:05.620Z,101075.50
2022-09-05T15:52:32.326Z,101070.66
2022-09-05T15:54:59.115Z,101068.31
2022-09-05T15:57:26.868Z,101065.59
2022-09-05T15:59:53.465Z,101064.44
2022-09-05T16:02:20.153Z,101066.34
2022-09-05T16:10:31.285Z,101057.50
2022-09-05T16:10:46.270Z,101064.94
2022-09-05T16:10:57.822Z,101063.75
2022-09-05T16:13:14.839Z,101058.72
2022-09-05T16:19:29.406Z,101055.06
2022-09-05T16:23:15.701Z,101054.91
2022-09-05T16:23:23.591Z,101051.53
2022-09-05T16:24:05.934Z,101050.22
2022-09-05T16:26:33.332Z,101047.72
2022-09-05T16:28:59.935Z,101044.72
2022-09-05T16:31:27.070Z,101041.44
2022-09-05T16:33:54.410Z,101035.56
2022-09-05T16:36:21.302Z,101037.00
2022-09-05T16:38:49.501Z,101033.91
2022-09-05T16:41:19.934Z,101029.66
2022-09-05T16:43:49.791Z,101027.63
2022-09-05T16:46:16.673Z,101030.19
2022-09-05T16:48:47.209Z,101031.50
2022-09-05T16:51:34.853Z,101024.22
2022-09-05T16:54:02.500Z,101023.00
2022-09-05T16:56:30.378Z,101028.44
2022-09-05T16:58:58.144Z,101019.53
2022-09-05T17:01:24.724Z,101025.56
2022-09-05T17:03:53.645Z,101022.75
2022-09-05T17:06:25.866Z,101021.13
2022-09-05T17:08:55.505Z,101016.53
2022-09-05T17:11:44.484Z,101017.66
2022-09-05T17:14:26.141Z,101019.25
2022-09-05T17:16:56.627Z,101006.72
2022-09-05T17:19:23.856Z,101011.47
2022-09-05T17:29:19.469Z,101012.28
2022-09-05T17:29:26.606Z,101012.91
2022-09-05T17:29:47.328Z,101014.13
2022-09-05T17:33:08.970Z,101008.09
2022-09-05T17:35:41.547Z,101007.75
2022-09-05T17:38:11.560Z,101010.13
2022-09-05T17:40:39.275Z,101012.66
2022-09-05T17:43:05.748Z,101001.22
2022-09-05T17:45:35.023Z,101007.06
2022-09-05T17:48:02.044Z,101006.25
2022-09-05T17:50:33.285Z,101010.31
2022-09-05T17:53:25.197Z,101007.91
2022-09-05T17:55:50.262Z,101016.06
2022-09-05T17:58:18.900Z,101013.50
2022-09-05T18:00:45.905Z,101021.72
2022-09-05T18:03:13.013Z,101017.44
2022-09-05T18:05:39.766Z,101009.81
2022-09-05T18:08:07.037Z,101012.44
2022-09-05T18:10:33.619Z,101012.22
2022-09-05T18:13:31.642Z,101015.75
2022-09-05T18:15:47.131Z,101014.22
2022-09-05T18:18:42.283Z,101011.59
2022-09-05T18:23:54.334Z,101015.44
2022-09-05T18:29:57.633Z,100982.47
2022-09-05T18:32:54.176Z,101019.88
2022-09-05T18:35:42.995Z,101012.00
2022-09-05T18:38:18.751Z,100835.09
2022-09-05T18:41:13.541Z,101019.66
2022-09-05T18:44:00.483Z,100578.31
2022-09-05T18:46:47.367Z,100997.19
2022-09-05T18:50:22.028Z,100771.25
2022-09-05T18:52:13.453Z,100597.88
2022-09-05T18:54:50.381Z,100901.22
2022-09-05T18:57:38.257Z,100545.19
2022-09-05T19:00:09.731Z,100254.59
2022-09-05T19:02:51.339Z,100828.56
2022-09-05T19:05:56.117Z,101009.75
2022-09-05T19:08:48.355Z,100911.53
2022-09-05T19:11:28.033Z,100862.22
2022-09-05T19:14:25.220Z,100718.66
2022-09-05T19:16:47.675Z,100929.38
2022-09-05T19:19:16.054Z,100012.34
2022-09-05T19:21:56.133Z,100846.06
2022-09-05T19:24:45.716Z,100889.88
2022-09-05T19:27:55.384Z,101002.13
2022-09-05T19:36:57.695Z,100561.72
2022-09-05T19:37:13.892Z,100922.00
2022-09-05T19:37:23.872Z,100933.03
2022-09-05T19:40:20.475Z,100915.50
2022-09-05T19:47:40.430Z,100566.84
2022-09-05T19:47:41.508Z,100770.78
2022-09-05T19:47:42.046Z,100815.72
2022-09-05T19:50:09.848Z,100942.88
2022-09-05T19:52:39.517Z,100994.53
2022-09-05T19:55:26.420Z,101005.84
2022-09-05T19:58:19.342Z,100707.13
2022-09-05T20:01:16.953Z,101001.34
2022-09-05T20:03:43.843Z,100992.78
2022-09-05T20:06:12.024Z,100985.13
2022-09-05T20:08:45.354Z,100980.25
2022-09-05T20:11:11.902Z,100981.63
2022-09-05T20:13:38.598Z,100985.22
2022-09-05T20:16:06.043Z,100990.72
2022-09-05T20:18:32.910Z,101001.38
2022-09-05T20:20:59.718Z,100999.66
2022-09-05T20:23:26.489Z,100996.59
2022-09-05T20:25:53.122Z,101003.25
2022-09-05T20:28:19.810Z,100999.84
2022-09-05T20:30:46.412Z,101006.84
2022-09-05T20:33:13.749Z,101003.38
2022-09-05T20:40:41.747Z,101002.84
2022-09-05T20:43:11.435Z,100978.94
2022-09-05T20:43:27.820Z,101008.16
2022-09-05T20:44:23.068Z,101007.66
2022-09-05T20:50:14.296Z,100993.97
2022-09-05T20:54:10.245Z,100999.94
2022-09-05T20:54:17.182Z,100998.97
2022-09-05T20:55:38.152Z,100997.69
2022-09-05T20:58:02.874Z,100988.28
2022-09-05T21:00:30.194Z,100994.44
2022-09-05T21:02:58.375Z,100992.72
2022-09-05T21:05:24.969Z,100995.44
2022-09-05T21:08:06.773Z,100985.88
2022-09-05T21:10:34.200Z,100992.19
2022-09-05T21:13:17.539Z,100990.59
2022-09-05T21:15:52.928Z,100999.75
2022-09-05T21:18:23.446Z,100997.69
2022-09-05T21:20:56.613Z,100998.00
2022-09-05T21:23:24.078Z,100982.56
2022-09-05T21:25:51.493Z,100993.63
2022-09-05T21:28:17.887Z,100984.59
2022-09-05T21:30:44.469Z,100981.19
2022-09-05T21:33:18.299Z,100986.84
2022-09-05T21:35:44.999Z,100984.13
2022-09-05T21:38:11.479Z,100974.47
2022-09-05T21:40:37.915Z,100965.97
2022-09-05T21:47:33.925Z,100959.88
2022-09-05T21:47:49.426Z,100958.78
2022-09-05T21:48:40.387Z,100960.69
2022-09-05T21:51:06.907Z,100960.44
2022-09-05T21:58:33.502Z,100954.06
2022-09-05T21:59:25.704Z,100952.75
2022-09-05T21:59:32.704Z,100960.50
2022-09-05T22:01:54.782Z,100961.88
2022-09-05T22:04:22.047Z,100957.28
2022-09-05T22:06:48.981Z,100953.31
2022-09-05T22:09:19.699Z,100955.69
2022-09-05T22:11:53.033Z,100950.09
2022-09-05T22:14:21.838Z,100943.97
2022-09-05T22:16:50.252Z,100942.41
2022-09-05T22:19:21.404Z,100942.16
2022-09-05T22:21:47.918Z,100935.97
2022-09-05T22:24:14.372Z,100938.38
2022-09-05T22:26:52.005Z,100932.22
2022-09-05T22:29:27.823Z,100929.03
2022-09-05T22:31:56.209Z,100930.88
2022-09-05T22:34:23.447Z,100935.16
2022-09-05T22:36:50.986Z,100935.94
2022-09-05T22:39:27.381Z,100931.97
2022-09-05T22:42:04.065Z,100931.97
2022-09-05T22:44:37.727Z,100934.06
2022-09-05T22:47:05.699Z,100938.06
2022-09-05T22:49:32.414Z,100936.19
2022-09-05T22:51:59.224Z,100936.47
2022-09-05T22:54:25.691Z,100940.47
2022-09-05T22:56:52.204Z,100951.16
2022-09-05T22:59:19.466Z,100944.50
2022-09-05T23:01:45.917Z,100945.56
2022-09-05T23:04:12.453Z,100943.16
2022-09-05T23:06:38.954Z,100946.91
2022-09-05T23:09:05.544Z,100948.53
2022-09-05T23:11:31.984Z,100951.75
2022-09-05T23:13:58.673Z,100950.72
2022-09-05T23:16:25.079Z,100948.88
2022-09-05T23:18:51.562Z,100951.81
2022-09-05T23:21:18.195Z,100949.16
2022-09-05T23:23:45.222Z,100943.81
2022-09-05T23:26:17.845Z,100953.16
2022-09-05T23:28:44.584Z,100949.44
2022-09-05T23:31:11.268Z,100948.91
2022-09-05T23:33:37.858Z,100944.38
2022-09-05T23:36:05.167Z,100947.03
2022-09-05T23:38:31.651Z,100944.38
2022-09-05T23:40:58.079Z,100943.28
2022-09-05T23:43:25.661Z,100941.16
2022-09-05T23:45:52.234Z,100949.44
2022-09-05T23:48:18.870Z,100936.63
2022-09-05T23:50:45.407Z,100944.91
2022-09-05T23:53:11.972Z,100939.56
2022-09-05T23:55:41.590Z,100939.06
2022-09-05T23:58:10.163Z,100940.13
